Home > Products > Valid Products > TAF

000
FTUS45 KGGW 311700
TAFGDV
TAF
KGDV 311720Z 3118/0118 VRB03KT P6SM FEW120
      AMD LTD TO CLD VIS AND WIND=



000
FTUS45 KGGW 311700
TAFOLF
TAF
KOLF 311720Z 3118/0118 VRB03KT P6SM FEW120=



000
FTUS45 KGGW 311700
TAFGDV
TAF
KGDV 311720Z 3118/0118 VRB03KT P6SM FEW120
      AMD LTD TO CLD VIS AND WIND=



000
FTUS45 KGGW 311700
TAFOLF
TAF
KOLF 311720Z 3118/0118 VRB03KT P6SM FEW120=



000
FTUS45 KGGW 311700
TAFGGW
TAF
KGGW 311720Z 3118/0118 16007KT P6SM FEW120
     FM010600 VRB03KT P6SM SKC=



000
FTUS45 KGGW 311700
TAFSDY
TAF
KSDY 311720Z 3118/0118 VRB03KT P6SM FEW110
      AMD LTD TO CLD VIS AND WIND=



000
FTUS45 KGGW 311100
TAFGDV
TAF
KGDV 311122Z 3112/0112 VRB05KT P6SM SKC
      AMD LTD TO CLD VIS AND WIND=



000
FTUS45 KGGW 311100
TAFGDV
TAF
KGDV 311122Z 3112/0112 VRB05KT P6SM SKC
      AMD LTD TO CLD VIS AND WIND=



000
FTUS45 KGGW 311100
TAFGGW
TAF
KGGW 311122Z 3112/0112 09007KT P6SM SKC
     FM311800 VRB05KT P6SM SKC
     FM010200 09007KT P6SM SKC=



000
FTUS45 KGGW 311100
TAFOLF
TAF
KOLF 311122Z 3112/0112 VRB05KT P6SM SKC=



000
FTUS45 KGGW 311100
TAFSDY
TAF
KSDY 311122Z 3112/0112 VRB06KT P6SM SKC
      AMD LTD TO CLD VIS AND WIND=



000
FTUS45 KGGW 311100
TAFOLF
TAF
KOLF 311122Z 3112/0112 VRB05KT P6SM SKC=



000
FTUS45 KGGW 310500
TAFGDV
TAF
KGDV 310523Z 3106/0106 VRB05KT P6SM SKC
      AMD LTD TO CLD VIS AND WIND=



000
FTUS45 KGGW 310500
TAFGDV
TAF
KGDV 310523Z 3106/0106 VRB05KT P6SM SKC
      AMD LTD TO CLD VIS AND WIND=



000
FTUS45 KGGW 310500
TAFGGW
TAF
KGGW 310523Z 3106/0106 09007KT P6SM SKC
     FM311800 VRB05KT P6SM SKC
     FM010200 09007KT P6SM SKC=



000
FTUS45 KGGW 310500
TAFOLF
TAF
KOLF 310523Z 3106/0106 VRB05KT P6SM SKC=



000
FTUS45 KGGW 310500
TAFSDY
TAF
KSDY 310523Z 3106/0106 VRB06KT P6SM SKC
      AMD LTD TO CLD VIS AND WIND=



000
FTUS45 KGGW 310500
TAFGDV
TAF
KGDV 310523Z 3106/0106 VRB05KT P6SM SKC
      AMD LTD TO CLD VIS AND WIND=



000
FTUS45 KGGW 310500
TAFOLF
TAF
KOLF 310523Z 3106/0106 VRB05KT P6SM SKC=



000
FTUS45 KGGW 310500
TAFSDY
TAF
KSDY 310523Z 3106/0106 VRB06KT P6SM SKC
      AMD LTD TO CLD VIS AND WIND=



000
FTUS45 KGGW 310500
TAFGGW
TAF
KGGW 310523Z 3106/0106 09007KT P6SM SKC
     FM311800 VRB05KT P6SM SKC
     FM010200 09007KT P6SM SKC=



000
FTUS45 KGGW 310500
TAFOLF
TAF
KOLF 310523Z 3106/0106 VRB05KT P6SM SKC=



000
FTUS45 KGGW 310500
TAFGDV
TAF
KGDV 310523Z 3106/0106 VRB05KT P6SM SKC
      AMD LTD TO CLD VIS AND WIND=



000
FTUS45 KGGW 302300
TAFOLF
TAF
KOLF 302320Z 3100/3124 29011KT P6SM FEW250
     FM310300 00000KT P6SM FEW250
     FM312100 VRB06KT P6SM FEW250=



000
FTUS45 KGGW 302300
TAFSDY
TAF
KSDY 302320Z 3100/3124 32011KT P6SM FEW250
     FM310300 VRB04KT P6SM FEW250
      AMD LTD TO CLD VIS AND WIND=



000
FTUS45 KGGW 302300
TAFGDV
TAF
KGDV 302320Z 3100/3124 29010KT P6SM SKC
     FM310300 VRB05KT P6SM SKC
      AMD LTD TO CLD VIS AND WIND=



000
FTUS45 KGGW 302300
TAFGGW
TAF
KGGW 302320Z 3100/3124 29009KT P6SM FEW250
     FM310300 VRB04KT P6SM FEW250=



000
FTUS45 KGGW 301700
TAFOLF
TAF
KOLF 301721Z 3018/3118 32006KT P6SM FEW210
     FM310300 00000KT P6SM FEW230=



000
FTUS45 KGGW 301700
TAFSDY
TAF
KSDY 301721Z 3018/3118 32008KT P6SM FEW250
     FM310300 VRB04KT P6SM FEW230
      AMD LTD TO CLD VIS AND WIND=



000
FTUS45 KGGW 301700
TAFGDV
TAF
KGDV 301721Z 3018/3118 33011KT P6SM FEW210
     FM310300 VRB05KT P6SM SKC
      AMD LTD TO CLD VIS AND WIND=



000
FTUS45 KGGW 301700
TAFGDV
TAF
KGDV 301721Z 3018/3118 33011KT P6SM FEW210
     FM310300 VRB05KT P6SM SKC
      AMD LTD TO CLD VIS AND WIND=



000
FTUS45 KGGW 301700
TAFOLF
TAF
KOLF 301721Z 3018/3118 32006KT P6SM FEW210
     FM310300 00000KT P6SM FEW230=



000
FTUS45 KGGW 301700
TAFGGW
TAF
KGGW 301721Z 3018/3118 32007KT P6SM FEW180=



000
FTUS45 KGGW 301700
TAFGDV
TAF
KGDV 301721Z 3018/3118 33011KT P6SM FEW210
     FM310300 VRB05KT P6SM SKC
      AMD LTD TO CLD VIS AND WIND=



000
FTUS45 KGGW 301700
TAFOLF
TAF
KOLF 301721Z 3018/3118 32006KT P6SM FEW210
     FM310300 00000KT P6SM FEW230=



000
FTUS45 KGGW 301700
TAFSDY
TAF
KSDY 301721Z 3018/3118 32008KT P6SM FEW250
     FM310300 VRB04KT P6SM FEW230
      AMD LTD TO CLD VIS AND WIND=



000
FTUS45 KGGW 301700
TAFOLF
TAF
KOLF 301721Z 3018/3118 32006KT P6SM FEW210
     FM310300 00000KT P6SM FEW230=



000
FTUS45 KGGW 301700
TAFGDV
TAF
KGDV 301721Z 3018/3118 33011KT P6SM FEW210
     FM310300 VRB05KT P6SM SKC
      AMD LTD TO CLD VIS AND WIND=



000
FTUS45 KGGW 301700
TAFGGW
TAF
KGGW 301721Z 3018/3118 32007KT P6SM FEW180=



000
FTUS45 KGGW 301100
TAFOLF
TAF
KOLF 301134Z 3012/3112 VRB05KT P6SM FEW100
     FM301800 32011KT P6SM FEW120
     FM310300 VRB05KT P6SM FEW250=



000
FTUS45 KGGW 301100
TAFSDY
TAF
KSDY 301134Z 3012/3112 VRB05KT P6SM FEW120
     FM301800 32014KT P6SM FEW120
     FM310300 VRB05KT P6SM FEW250
      AMD LTD TO CLD VIS AND WIND=



000
FTUS45 KGGW 301100
TAFOLF
TAF
KOLF 301134Z 3012/3112 VRB05KT P6SM FEW100
     FM301800 32011KT P6SM FEW120
     FM310300 VRB05KT P6SM FEW250=



000
FTUS45 KGGW 301100
TAFGDV
TAF
KGDV 301134Z 3012/3112 VRB05KT P6SM FEW100
     FM301800 33013KT P6SM FEW120
     FM310300 VRB06KT P6SM FEW250
      AMD LTD TO CLD VIS AND WIND=



000
FTUS45 KGGW 301100
TAFGGW
TAF
KGGW 301134Z 3012/3112 VRB05KT P6SM SCT100
     FM301700 32011KT P6SM FEW100
     FM310300 VRB05KT P6SM FEW250=



000
FTUS45 KGGW 301100
TAFGDV
TAF
KGDV 301134Z 3012/3112 VRB05KT P6SM FEW100
     FM301800 33013KT P6SM FEW120
     FM310300 VRB06KT P6SM FEW250
      AMD LTD TO CLD VIS AND WIND=



000
FTUS45 KGGW 300500 AAA
TAFGGW
TAF AMD
KGGW 300558Z 3006/3106 VRB06KT P6SM VCSH SCT060 BKN100
      TEMPO 3006/3007 32014G24KT
     FM300900 VRB04KT P6SM FEW250
     FM301600 30011KT P6SM FEW250
     FM310300 VRB05KT P6SM FEW250=



000
FTUS45 KGGW 300500 AAA
TAFGGW
TAF AMD
KGGW 300558Z 3006/3106 VRB06KT P6SM VCSH SCT060 BKN100
      TEMPO 3006/3007 32014G24KT
     FM300900 VRB04KT P6SM FEW250
     FM301600 30011KT P6SM FEW250
     FM310300 VRB05KT P6SM FEW250=



000
FTUS45 KGGW 300500
TAFOLF
TAF
KOLF 300522Z 3006/3106 VRB05KT P6SM SCT100
     FM300700 VRB05KT P6SM VCSH SCT070 BKN100
     FM301000 VRB06KT P6SM FEW250
     FM301800 31012KT P6SM FEW250
     FM310300 VRB05KT P6SM FEW250=



000
FTUS45 KGGW 300500
TAFGGW
TAF
KGGW 300522Z 3006/3106 VRB06KT P6SM VCSH SCT060 BKN100
     FM300900 VRB04KT P6SM FEW250
     FM301600 30011KT P6SM FEW250
     FM310300 VRB05KT P6SM FEW250=



000
FTUS45 KGGW 300500
TAFGDV
TAF
KGDV 300522Z 3006/3106 VRB05KT P6SM SCT200
     FM301500 26009KT P6SM FEW250
     FM301800 30013KT P6SM FEW250
     FM310300 34007KT P6SM FEW250
      AMD LTD TO CLD VIS AND WIND=



000
FTUS45 KGGW 300500
TAFSDY
TAF
KSDY 300522Z 3006/3106 VRB05KT P6SM SCT200
     FM301500 27007KT P6SM FEW250
     FM301800 31013KT P6SM FEW250
     FM310300 VRB06KT P6SM FEW250
      AMD LTD TO CLD VIS AND WIND=



000
FTUS45 KGGW 300500
TAFGDV
TAF
KGDV 300522Z 3006/3106 VRB05KT P6SM SCT200
     FM301500 26009KT P6SM FEW250
     FM301800 30013KT P6SM FEW250
     FM310300 34007KT P6SM FEW250
      AMD LTD TO CLD VIS AND WIND=



000
FTUS45 KGGW 300500
TAFOLF
TAF
KOLF 300522Z 3006/3106 VRB05KT P6SM SCT100
     FM300700 VRB05KT P6SM VCSH SCT070 BKN100
     FM301000 VRB06KT P6SM FEW250
     FM301800 31012KT P6SM FEW250
     FM310300 VRB05KT P6SM FEW250=



000
FTUS45 KGGW 300500
TAFOLF
TAF
KOLF 300522Z 3006/3106 VRB05KT P6SM SCT100
     FM300700 VRB05KT P6SM VCSH SCT070 BKN100
     FM301000 VRB06KT P6SM FEW250
     FM301800 31012KT P6SM FEW250
     FM310300 VRB05KT P6SM FEW250=



000
FTUS45 KGGW 300500
TAFGDV
TAF
KGDV 300522Z 3006/3106 VRB05KT P6SM SCT200
     FM301500 26009KT P6SM FEW250
     FM301800 30013KT P6SM FEW250
     FM310300 34007KT P6SM FEW250
      AMD LTD TO CLD VIS AND WIND=



000
FTUS45 KGGW 300500
TAFGDV
TAF
KGDV 300522Z 3006/3106 VRB05KT P6SM SCT200
     FM301500 26009KT P6SM FEW250
     FM301800 30013KT P6SM FEW250
     FM310300 34007KT P6SM FEW250
      AMD LTD TO CLD VIS AND WIND=



000
FTUS45 KGGW 300500
TAFGGW
TAF
KGGW 300522Z 3006/3106 VRB06KT P6SM VCSH SCT060 BKN100
     FM300900 VRB04KT P6SM FEW250
     FM301600 30011KT P6SM FEW250
     FM310300 VRB05KT P6SM FEW250=



000
FTUS45 KGGW 300500
TAFOLF
TAF
KOLF 300522Z 3006/3106 VRB05KT P6SM SCT100
     FM300700 VRB05KT P6SM VCSH SCT070 BKN100
     FM301000 VRB06KT P6SM FEW250
     FM301800 31012KT P6SM FEW250
     FM310300 VRB05KT P6SM FEW250=



000
FTUS45 KGGW 300500
TAFSDY
TAF
KSDY 300522Z 3006/3106 VRB05KT P6SM SCT200
     FM301500 27007KT P6SM FEW250
     FM301800 31013KT P6SM FEW250
     FM310300 VRB06KT P6SM FEW250
      AMD LTD TO CLD VIS AND WIND=



000
FTUS45 KGGW 292300
TAFGDV
TAF
KGDV 292326Z 3000/3024 32011KT P6SM FEW250
     FM300300 VRB06KT P6SM FEW250
     FM301800 29012KT P6SM FEW250
      AMD LTD TO CLD VIS AND WIND=



000
FTUS45 KGGW 292300
TAFSDY
TAF
KSDY 292326Z 3000/3024 29011KT P6SM FEW250
     FM300300 VRB04KT P6SM FEW250
     FM301800 31010KT P6SM FEW250
      AMD LTD TO CLD VIS AND WIND=



000
FTUS45 KGGW 292300
TAFGGW
TAF
KGGW 292326Z 3000/3024 30008KT P6SM SCT250
     FM300300 VRB04KT P6SM SCT250
     FM301800 31009KT P6SM FEW250=



000
FTUS45 KGGW 292300
TAFGDV
TAF
KGDV 292326Z 3000/3024 32011KT P6SM FEW250
     FM300300 VRB06KT P6SM FEW250
     FM301800 29012KT P6SM FEW250
      AMD LTD TO CLD VIS AND WIND=



000
FTUS45 KGGW 292300
TAFOLF
TAF
KOLF 292326Z 3000/3024 29009KT P6SM FEW250
     FM300300 VRB03KT P6SM FEW250
     FM301800 31009KT P6SM FEW250=



000
FTUS45 KGGW 292300
TAFOLF
TAF
KOLF 292326Z 3000/3024 29009KT P6SM FEW250
     FM300300 VRB03KT P6SM FEW250
     FM301800 31009KT P6SM FEW250=



000
FTUS45 KGGW 292000 AAA
TAFSDY
TAF AMD
KSDY 292002Z 2920/3018 27015G25KT P6SM SCT080
     FM300300 VRB06KT P6SM FEW090
      AMD LTD TO CLD VIS AND WIND=



000
FTUS45 KGGW 291700
TAFOLF
TAF
KOLF 291720Z 2918/3018 29016KT P6SM FEW250
     FM300300 VRB05KT P6SM FEW090=



000
FTUS45 KGGW 291700
TAFGGW
TAF
KGGW 291720Z 2918/3018 30012KT P6SM FEW250
     FM300300 VRB03KT P6SM SCT090=



000
FTUS45 KGGW 291700
TAFOLF
TAF
KOLF 291720Z 2918/3018 29016KT P6SM FEW250
     FM300300 VRB05KT P6SM FEW090=



000
FTUS45 KGGW 291700
TAFGDV
TAF
KGDV 291720Z 2918/3018 30018KT P6SM FEW250
     FM300300 VRB06KT P6SM FEW100
      AMD LTD TO CLD VIS AND WIND=



000
FTUS45 KGGW 291700
TAFSDY
TAF
KSDY 291720Z 2918/3018 30019G27KT P6SM FEW250
     FM300300 VRB06KT P6SM FEW090
      AMD LTD TO CLD VIS AND WIND=



000
FTUS45 KGGW 291700
TAFGDV
TAF
KGDV 291720Z 2918/3018 30018KT P6SM FEW250
     FM300300 VRB06KT P6SM FEW100
      AMD LTD TO CLD VIS AND WIND=



000
FTUS45 KGGW 291700
TAFOLF
TAF
KOLF 291720Z 2918/3018 29016KT P6SM FEW250
     FM300300 VRB05KT P6SM FEW090=



000
FTUS45 KGGW 291700
TAFOLF
TAF
KOLF 291720Z 2918/3018 29016KT P6SM FEW250
     FM300300 VRB05KT P6SM FEW090=



000
FTUS45 KGGW 291700
TAFGDV
TAF
KGDV 291720Z 2918/3018 30018KT P6SM FEW250
     FM300300 VRB06KT P6SM FEW100
      AMD LTD TO CLD VIS AND WIND=



000
FTUS45 KGGW 291700
TAFSDY
TAF
KSDY 291720Z 2918/3018 30019G27KT P6SM FEW250
     FM300300 VRB06KT P6SM FEW090
      AMD LTD TO CLD VIS AND WIND=



000
FTUS45 KGGW 291700
TAFGDV
TAF
KGDV 291720Z 2918/3018 30018KT P6SM FEW250
     FM300300 VRB06KT P6SM FEW100
      AMD LTD TO CLD VIS AND WIND=



000
FTUS45 KGGW 291700
TAFGGW
TAF
KGGW 291720Z 2918/3018 30012KT P6SM FEW250
     FM300300 VRB03KT P6SM SCT090=



000
FTUS45 KGGW 291100 RRA
TAFGGW
TAF
KGGW 291142Z 2912/3012 VRB05KT P6SM FEW160
     FM291800 29011KT P6SM FEW240
     FM300300 VRB03KT P6SM SCT170=



000
FTUS45 KGGW 291100 RRA
TAFSDY
TAF
KSDY 291142Z 2912/3012 27011KT P6SM SCT150
     FM300300 VRB06KT P6SM FEW220
      AMD LTD TO CLD VIS AND WIND=



000
FTUS45 KGGW 291100 RRA
TAFGDV
TAF
KGDV 291142Z 2912/3012 27009KT P6SM FEW160
     FM291500 28013KT P6SM FEW160
     FM300300 VRB06KT P6SM FEW220
      AMD LTD TO CLD VIS AND WIND=



000
FTUS45 KGGW 291100 RRA
TAFOLF
TAF
KOLF 291142Z 2912/3012 26007KT P6SM SCT150
     FM291500 28011KT P6SM SCT150
     FM300300 VRB05KT P6SM FEW210=



000
FTUS45 KGGW 291100 RRA
TAFOLF
TAF
KOLF 291142Z 2912/3012 26007KT P6SM SCT150
     FM291500 28011KT P6SM SCT150
     FM300300 VRB05KT P6SM FEW210=



000
FTUS45 KGGW 291100 RRA
TAFGDV
TAF
KGDV 291142Z 2912/3012 27009KT P6SM FEW160
     FM291500 28013KT P6SM FEW160
     FM300300 VRB06KT P6SM FEW220
      AMD LTD TO CLD VIS AND WIND=



000
FTUS45 KGGW 291100 RRA
TAFGDV
TAF
KGDV 291142Z 2912/3012 27009KT P6SM FEW160
     FM291500 28013KT P6SM FEW160
     FM300300 VRB06KT P6SM FEW220
      AMD LTD TO CLD VIS AND WIND=



000
FTUS45 KGGW 291100 RRA
TAFSDY
TAF
KSDY 291142Z 2912/3012 27011KT P6SM SCT150
     FM300300 VRB06KT P6SM FEW220
      AMD LTD TO CLD VIS AND WIND=



000
FTUS45 KGGW 291100 RRA
TAFOLF
TAF
KOLF 291142Z 2912/3012 26007KT P6SM SCT150
     FM291500 28011KT P6SM SCT150
     FM300300 VRB05KT P6SM FEW210=



000
FTUS45 KGGW 291100 RRA
TAFOLF
TAF
KOLF 291142Z 2912/3012 26007KT P6SM SCT150
     FM291500 28011KT P6SM SCT150
     FM300300 VRB05KT P6SM FEW210=



000
FTUS45 KGGW 291100 RRA
TAFGDV
TAF
KGDV 291142Z 2912/3012 27009KT P6SM FEW160
     FM291500 28013KT P6SM FEW160
     FM300300 VRB06KT P6SM FEW220
      AMD LTD TO CLD VIS AND WIND=



000
FTUS45 KGGW 291100 RRA
TAFGGW
TAF
KGGW 291142Z 2912/3012 VRB05KT P6SM FEW160
     FM291800 29011KT P6SM FEW240
     FM300300 VRB03KT P6SM SCT170=



000
FTUS45 KGGW 290500
TAFOLF
TAF
KOLF 290534Z 2906/3006 27008KT P6SM SCT110
     FM300300 VRB06KT P6SM FEW150=



000
FTUS45 KGGW 290500
TAFGDV
TAF
KGDV 290534Z 2906/3006 27012KT P6SM SCT160
      AMD LTD TO CLD VIS AND WIND=



000
FTUS45 KGGW 290500
TAFSDY
TAF
KSDY 290534Z 2906/3006 28009KT P6SM SCT110
     FM300300 29008KT P6SM FEW170
      AMD LTD TO CLD VIS AND WIND=



000
FTUS45 KGGW 290500
TAFOLF
TAF
KOLF 290534Z 2906/3006 27008KT P6SM SCT110
     FM300300 VRB06KT P6SM FEW150=



000
FTUS45 KGGW 290500
TAFGGW
TAF
KGGW 290534Z 2906/3006 25009KT P6SM SCT170
     FM300300 VRB03KT P6SM FEW130=



000
FTUS45 KGGW 290500
TAFGDV
TAF
KGDV 290534Z 2906/3006 27012KT P6SM SCT160
      AMD LTD TO CLD VIS AND WIND=



000
FTUS45 KGGW 290500
TAFGDV
TAF
KGDV 290534Z 2906/3006 27012KT P6SM SCT160
      AMD LTD TO CLD VIS AND WIND=



000
FTUS45 KGGW 290500
TAFSDY
TAF
KSDY 290534Z 2906/3006 28009KT P6SM SCT110
     FM300300 29008KT P6SM FEW170
      AMD LTD TO CLD VIS AND WIND=



000
FTUS45 KGGW 290500
TAFOLF
TAF
KOLF 290534Z 2906/3006 27008KT P6SM SCT110
     FM300300 VRB06KT P6SM FEW150=



000
FTUS45 KGGW 290500
TAFGDV
TAF
KGDV 290534Z 2906/3006 27012KT P6SM SCT160
      AMD LTD TO CLD VIS AND WIND=



000
FTUS45 KGGW 290500
TAFGGW
TAF
KGGW 290534Z 2906/3006 25009KT P6SM SCT170
     FM300300 VRB03KT P6SM FEW130=



000
FTUS45 KGGW 290500
TAFOLF
TAF
KOLF 290534Z 2906/3006 27008KT P6SM SCT110
     FM300300 VRB06KT P6SM FEW150=



000
FTUS45 KGGW 282300 AAA
TAFGGW
TAF AMD
KGGW 282329Z 2823/2924 28025G35KT P6SM VCSH FEW070 BKN120
     FM290300 28011KT P6SM BKN150=



000
FTUS45 KGGW 282300
TAFGDV
TAF
KGDV 282322Z 2900/2924 27030G40KT P6SM VCSH BKN120
     FM290300 29016KT P6SM BKN150
      AMD LTD TO CLD VIS AND WIND=



000
FTUS45 KGGW 282300
TAFSDY
TAF
KSDY 282322Z 2900/2924 26025G35KT P6SM -RA SCT040 OVC060
     FM290300 28018KT P6SM BKN120
      AMD LTD TO CLD VIS AND WIND=



000
FTUS45 KGGW 282300
TAFGDV
TAF
KGDV 282322Z 2900/2924 27030G40KT P6SM VCSH BKN120
     FM290300 29016KT P6SM BKN150
      AMD LTD TO CLD VIS AND WIND=



000
FTUS45 KGGW 282300
TAFOLF
TAF
KOLF 282322Z 2900/2924 27020G30KT P6SM VCSH SCT060 OVC100
     FM290300 27013KT P6SM BKN150=



000
FTUS45 KGGW 282300
TAFOLF
TAF
KOLF 282322Z 2900/2924 27020G30KT P6SM VCSH SCT060 OVC100
     FM290300 27013KT P6SM BKN150=



000
FTUS45 KGGW 282300
TAFOLF
TAF
KOLF 282322Z 2900/2924 27020G30KT P6SM VCSH SCT060 OVC100
     FM290300 27013KT P6SM BKN150=



000
FTUS45 KGGW 282300
TAFGDV
TAF
KGDV 282322Z 2900/2924 27030G40KT P6SM VCSH BKN120
     FM290300 29016KT P6SM BKN150
      AMD LTD TO CLD VIS AND WIND=



000
FTUS45 KGGW 282300
TAFOLF
TAF
KOLF 282322Z 2900/2924 27020G30KT P6SM VCSH SCT060 OVC100
     FM290300 27013KT P6SM BKN150=



000
FTUS45 KGGW 282300
TAFGGW
TAF
KGGW 282322Z 2900/2924 26025G35KT P6SM VCSH FEW070 BKN120
     FM290300 28011KT P6SM BKN150=



000
FTUS45 KGGW 282300
TAFGDV
TAF
KGDV 282322Z 2900/2924 27030G40KT P6SM VCSH BKN120
     FM290300 29016KT P6SM BKN150
      AMD LTD TO CLD VIS AND WIND=



000
FTUS45 KGGW 282300
TAFGGW
TAF
KGGW 282322Z 2900/2924 26025G35KT P6SM VCSH FEW070 BKN120
     FM290300 28011KT P6SM BKN150=



000
FTUS45 KGGW 282300
TAFSDY
TAF
KSDY 282322Z 2900/2924 26025G35KT P6SM -RA SCT040 OVC060
     FM290300 28018KT P6SM BKN120
      AMD LTD TO CLD VIS AND WIND=



000
FTUS45 KGGW 282000 AAB
TAFGGW
TAF AMD
KGGW 282059Z 2821/2918 26026G36KT P6SM VCSH FEW060 BKN080
     FM290000 29023G33KT P6SM BKN050
     FM290300 29011KT P6SM BKN100
     FM290600 28008KT P6SM SCT200=



000
FTUS45 KGGW 282000 AAB
TAFGGW
TAF AMD
KGGW 282059Z 2821/2918 26026G36KT P6SM VCSH FEW060 BKN080
     FM290000 29023G33KT P6SM BKN050
     FM290300 29011KT P6SM BKN100
     FM290600 28008KT P6SM SCT200=



000
FTUS45 KGGW 282000 AAA
TAFGDV
TAF AMD
KGDV 282003Z 2820/2918 27033G45KT P6SM -SHRA SCT028 OVC070
     FM290000 29030G42KT P6SM BKN050
     FM290300 29022G30KT P6SM BKN060 BKN140
     FM290600 28016KT P6SM BKN100
     FM291200 26012KT P6SM SCT250
      AMD LTD TO CLD VIS AND WIND=



000
FTUS45 KGGW 282000 AAA
TAFGDV
TAF AMD
KGDV 282003Z 2820/2918 27033G45KT P6SM -SHRA SCT028 OVC070
     FM290000 29030G42KT P6SM BKN050
     FM290300 29022G30KT P6SM BKN060 BKN140
     FM290600 28016KT P6SM BKN100
     FM291200 26012KT P6SM SCT250
      AMD LTD TO CLD VIS AND WIND=



000
FTUS45 KGGW 282000 AAA
TAFOLF
TAF AMD
KOLF 282001Z 2820/2918 27030G40KT P6SM -RA SCT029 OVC040
     FM290000 29025G35KT P6SM VCSH BKN040
     FM290300 28015KT P6SM BKN070
     FM290600 27010KT P6SM SCT200=



000
FTUS45 KGGW 282000 AAA
TAFOLF
TAF AMD
KOLF 282001Z 2820/2918 27030G40KT P6SM -RA SCT029 OVC040
     FM290000 29025G35KT P6SM VCSH BKN040
     FM290300 28015KT P6SM BKN070
     FM290600 27010KT P6SM SCT200=



000
FTUS45 KGGW 281900 AAA
TAFGGW
TAF AMD
KGGW 281959Z 2820/2918 26025G35KT P6SM -RA FEW020 OVC060
     FM282100 27030G40KT P6SM -SHRA BKN060
     FM290000 29023G33KT P6SM BKN050
     FM290300 29011KT P6SM BKN100
     FM290600 28008KT P6SM SCT200=



000
FTUS45 KGGW 281900 AAA
TAFGGW
TAF AMD
KGGW 281959Z 2820/2918 26025G35KT P6SM -RA FEW020 OVC060
     FM282100 27030G40KT P6SM -SHRA BKN060
     FM290000 29023G33KT P6SM BKN050
     FM290300 29011KT P6SM BKN100
     FM290600 28008KT P6SM SCT200=



    US Dept of Commerce
    National Oceanic and Atmospheric Administration
    National Weather Service
    1325 East West Highway
    Silver Spring, MD 20910
    Page Author: NWS Internet Services Team
Disclaimer
Information Quality
Credits
Glossary
Privacy Policy
Freedom of Information Act (FOIA)
About Us
Career Opportunities